createdAt,value
2023-01-07T00:01:28.794Z,7.50
2023-01-07T00:03:57.175Z,6.95
2023-01-07T00:06:32.744Z,7.07
2023-01-07T00:09:00.245Z,8.00
2023-01-07T00:11:29.816Z,7.95
2023-01-07T00:13:58.422Z,7.55
2023-01-07T00:16:29.755Z,7.60
2023-01-07T00:18:58.448Z,7.60
2023-01-07T00:21:26.705Z,7.38
2023-01-07T00:23:55.419Z,8.10
2023-01-07T00:26:23.807Z,7.57
2023-01-07T00:28:52.459Z,7.40
2023-01-07T00:31:21.907Z,7.57
2023-01-07T00:33:52.317Z,7.35
2023-01-07T00:36:19.384Z,7.25
2023-01-07T00:38:46.405Z,7.15
2023-01-07T00:41:20.595Z,7.70
2023-01-07T00:43:47.268Z,7.53
2023-01-07T00:46:15.417Z,7.40
2023-01-07T00:48:43.101Z,7.30
2023-01-07T00:51:11.643Z,7.75
2023-01-07T00:53:40.544Z,8.00
2023-01-07T00:56:08.845Z,7.30
2023-01-07T00:58:35.317Z,7.80
2023-01-07T01:01:02.981Z,7.05
2023-01-07T01:03:31.171Z,7.20
2023-01-07T01:06:05.128Z,7.60
2023-01-07T01:08:32.488Z,7.20
2023-01-07T01:11:09.639Z,7.00
2023-01-07T01:13:36.986Z,7.15
2023-01-07T01:16:08.665Z,6.93
2023-01-07T01:18:35.718Z,6.95
2023-01-07T01:21:11.579Z,6.70
2023-01-07T01:23:38.439Z,6.60
2023-01-07T01:26:06.154Z,6.72
2023-01-07T01:28:33.862Z,6.72
2023-01-07T01:31:00.865Z,6.80
2023-01-07T01:33:27.538Z,6.60
2023-01-07T01:35:57.208Z,6.50
2023-01-07T01:38:24.197Z,6.13
2023-01-07T01:40:50.752Z,6.30
2023-01-07T01:43:36.315Z,6.07
2023-01-07T01:46:25.805Z,5.90
2023-01-07T01:48:58.666Z,5.88
2023-01-07T01:51:27.448Z,5.95
2023-01-07T01:53:59.916Z,5.75
2023-01-07T01:56:35.887Z,5.97
2023-01-07T01:59:06.677Z,5.90
2023-01-07T02:01:39.904Z,5.68
2023-01-07T02:04:12.855Z,5.72
2023-01-07T02:06:49.947Z,5.72
2023-01-07T02:09:16.753Z,6.28
2023-01-07T02:11:59.952Z,5.70
2023-01-07T02:14:26.535Z,5.75
2023-01-07T02:17:32.753Z,5.57
2023-01-07T02:20:08.581Z,6.40
2023-01-07T02:23:02.513Z,6.10
2023-01-07T02:26:02.569Z,5.70
2023-01-07T02:28:31.759Z,6.13
2023-01-07T02:31:27.893Z,7.30
2023-01-07T02:34:15.864Z,6.80
2023-01-07T02:37:04.617Z,6.65
2023-01-07T02:39:38.621Z,6.83
2023-01-07T02:42:15.908Z,6.70
2023-01-07T02:45:00.476Z,7.10
2023-01-07T02:47:33.283Z,6.82
2023-01-07T02:49:59.778Z,6.72
2023-01-07T02:52:28.980Z,7.40
2023-01-07T02:55:12.198Z,6.95
2023-01-07T02:57:44.516Z,7.03
2023-01-07T03:00:32.126Z,6.53
2023-01-07T03:03:29.768Z,6.75
2023-01-07T03:06:19.534Z,7.13
2023-01-07T03:09:10.316Z,7.22
2023-01-07T03:11:48.638Z,7.40
2023-01-07T03:14:31.565Z,6.90
2023-01-07T03:17:02.812Z,7.20
2023-01-07T03:19:32.641Z,7.63
2023-01-07T03:22:01.945Z,7.00
2023-01-07T03:24:31.159Z,7.45
2023-01-07T03:27:00.413Z,7.00
2023-01-07T03:29:28.017Z,7.15
2023-01-07T03:32:14.288Z,6.67
2023-01-07T03:34:42.748Z,7.10
2023-01-07T03:37:16.410Z,7.53
2023-01-07T03:39:45.146Z,7.38
2023-01-07T03:42:13.304Z,7.43
2023-01-07T03:44:39.908Z,7.40
2023-01-07T03:47:07.358Z,7.55
2023-01-07T03:49:36.921Z,8.00
2023-01-07T03:52:04.065Z,6.97
2023-01-07T03:54:30.642Z,7.28
2023-01-07T03:56:57.156Z,7.20
2023-01-07T03:59:23.725Z,7.75
2023-01-07T04:01:50.445Z,7.38
2023-01-07T04:04:17.441Z,7.18
2023-01-07T04:06:44.035Z,7.25
2023-01-07T04:09:12.204Z,7.10
2023-01-07T04:11:38.736Z,7.05
2023-01-07T04:14:05.186Z,7.18
2023-01-07T04:16:31.656Z,7.15
2023-01-07T04:18:58.192Z,8.07
2023-01-07T04:21:24.761Z,7.40
2023-01-07T04:23:51.305Z,7.45
2023-01-07T04:26:17.899Z,7.78
2023-01-07T04:28:44.400Z,7.30
2023-01-07T04:31:11.067Z,7.22
2023-01-07T04:33:37.633Z,6.37
2023-01-07T04:36:04.484Z,7.28
2023-01-07T04:38:31.274Z,7.03
2023-01-07T04:40:57.889Z,6.38
2023-01-07T04:43:24.398Z,6.28
2023-01-07T04:45:51.156Z,6.70
2023-01-07T04:48:17.676Z,6.10
2023-01-07T04:50:44.231Z,6.32
2023-01-07T04:53:10.682Z,5.75
2023-01-07T04:55:37.216Z,6.13
2023-01-07T04:58:03.743Z,5.90
2023-01-07T05:00:30.345Z,5.65
2023-01-07T05:02:56.855Z,5.40
2023-01-07T05:05:23.398Z,5.50
2023-01-07T05:07:49.840Z,5.50
2023-01-07T05:10:16.360Z,4.93
2023-01-07T05:12:42.788Z,4.55
2023-01-07T05:15:09.837Z,5.13
2023-01-07T05:17:36.386Z,4.68
2023-01-07T05:20:03.931Z,4.47
2023-01-07T05:22:30.353Z,4.43
2023-01-07T05:24:56.953Z,4.10
2023-01-07T05:27:23.436Z,4.25
2023-01-07T05:29:49.959Z,4.03
2023-01-07T05:32:16.584Z,4.18
2023-01-07T05:34:43.162Z,4.00
2023-01-07T05:37:09.664Z,4.13
2023-01-07T05:39:36.146Z,3.90
2023-01-07T05:42:02.689Z,3.72
2023-01-07T05:44:29.183Z,4.00
2023-01-07T05:46:55.817Z,3.60
2023-01-07T05:49:22.365Z,3.42
2023-01-07T05:51:48.885Z,3.78
2023-01-07T05:54:15.321Z,3.20
2023-01-07T05:56:41.753Z,4.03
2023-01-07T05:59:08.232Z,3.70
2023-01-07T06:01:34.787Z,3.30
2023-01-07T06:04:01.278Z,3.53
2023-01-07T06:06:27.822Z,3.72
2023-01-07T06:08:54.268Z,3.60
2023-01-07T06:11:20.801Z,3.33
2023-01-07T06:13:47.291Z,3.10
2023-01-07T06:16:14.412Z,3.28
2023-01-07T06:18:40.924Z,3.00
2023-01-07T06:21:07.568Z,2.92
2023-01-07T06:23:34.147Z,2.87
2023-01-07T06:26:00.589Z,3.00
2023-01-07T06:28:27.175Z,2.90
2023-01-07T06:30:53.691Z,2.90
2023-01-07T06:33:21.294Z,2.75
2023-01-07T06:35:47.784Z,2.73
2023-01-07T06:38:14.498Z,2.60
2023-01-07T06:40:41.034Z,2.70
2023-01-07T06:43:07.609Z,2.70
2023-01-07T06:45:34.181Z,2.60
2023-01-07T06:48:00.695Z,2.53
2023-01-07T06:50:27.215Z,2.70
2023-01-07T06:52:53.741Z,2.65
2023-01-07T06:55:20.223Z,2.58
2023-01-07T06:57:46.690Z,2.40
2023-01-07T07:00:13.616Z,2.13
2023-01-07T07:02:40.140Z,2.10
2023-01-07T07:05:06.846Z,2.33
2023-01-07T07:07:33.348Z,2.10
2023-01-07T07:09:59.770Z,2.58
2023-01-07T07:12:26.291Z,2.30
2023-01-07T07:14:52.738Z,2.30
2023-01-07T07:17:19.265Z,2.28
2023-01-07T07:19:45.772Z,2.30
2023-01-07T07:22:12.374Z,2.30
2023-01-07T07:24:38.859Z,2.40
2023-01-07T07:27:05.384Z,2.13
2023-01-07T07:29:31.856Z,2.28
2023-01-07T07:31:58.464Z,2.10
2023-01-07T07:34:24.931Z,2.05
2023-01-07T07:36:51.475Z,2.10
2023-01-07T07:39:17.962Z,2.30
2023-01-07T07:41:44.435Z,2.15
2023-01-07T07:44:11.138Z,2.40
2023-01-07T07:46:37.947Z,2.15
2023-01-07T07:49:04.817Z,2.10
2023-01-07T07:51:31.670Z,2.10
2023-01-07T07:53:58.259Z,2.00
2023-01-07T07:56:24.725Z,2.00
2023-01-07T07:58:51.209Z,2.10
2023-01-07T08:01:17.758Z,2.17
2023-01-07T08:03:44.327Z,1.80
2023-01-07T08:06:12.374Z,1.80
2023-01-07T08:08:38.889Z,1.70
2023-01-07T08:11:05.385Z,2.08
2023-01-07T08:13:32.001Z,1.87
2023-01-07T08:15:58.599Z,1.90
2023-01-07T08:18:25.174Z,1.95
2023-01-07T08:20:51.696Z,2.05
2023-01-07T08:23:18.408Z,1.75
2023-01-07T08:25:44.870Z,2.03
2023-01-07T08:28:11.491Z,1.98
2023-01-07T08:30:38.230Z,2.00
2023-01-07T08:33:07.593Z,2.10
2023-01-07T08:35:34.596Z,1.90
2023-01-07T08:38:06.085Z,1.53
2023-01-07T08:40:33.051Z,1.70
2023-01-07T08:43:04.398Z,1.80
2023-01-07T08:45:31.416Z,1.80
2023-01-07T08:47:58.048Z,1.75
2023-01-07T08:50:25.843Z,1.60
2023-01-07T08:52:52.395Z,1.50
2023-01-07T08:55:19.203Z,1.70
2023-01-07T08:57:46.022Z,1.80
2023-01-07T09:00:15.685Z,1.70
2023-01-07T09:02:42.795Z,1.60
2023-01-07T09:05:10.139Z,1.40
2023-01-07T09:07:36.926Z,1.63
2023-01-07T09:10:04.134Z,1.50
2023-01-07T09:12:30.887Z,1.60
2023-01-07T09:14:57.499Z,1.40
2023-01-07T09:17:24.331Z,1.30
2023-01-07T09:19:51.013Z,1.50
2023-01-07T09:22:17.560Z,1.40
2023-01-07T09:24:44.917Z,1.60
2023-01-07T09:27:12.578Z,1.57
2023-01-07T09:29:39.084Z,1.42
2023-01-07T09:32:05.592Z,1.60
2023-01-07T09:34:32.184Z,1.60
2023-01-07T09:36:58.696Z,1.50
2023-01-07T09:39:25.154Z,1.53
2023-01-07T09:41:51.681Z,1.38
2023-01-07T09:44:46.211Z,1.70
2023-01-07T09:47:15.803Z,1.60
2023-01-07T09:49:46.644Z,1.70
2023-01-07T09:52:36.731Z,1.70
2023-01-07T09:55:27.297Z,1.67
2023-01-07T09:57:54.013Z,1.90
2023-01-07T10:00:23.943Z,1.90
2023-01-07T10:03:16.087Z,1.90
2023-01-07T10:06:15.438Z,2.10
2023-01-07T10:09:13.720Z,1.95
2023-01-07T10:12:09.288Z,2.03
2023-01-07T10:14:49.131Z,2.00
2023-01-07T10:17:25.896Z,2.30
2023-01-07T10:20:13.474Z,2.30
2023-01-07T10:22:48.700Z,2.20
2023-01-07T10:25:21.427Z,2.30
2023-01-07T10:27:49.754Z,2.03
2023-01-07T10:30:22.898Z,2.00
2023-01-07T10:32:56.819Z,2.10
2023-01-07T10:35:27.531Z,2.03
2023-01-07T10:37:56.859Z,2.10
2023-01-07T10:40:42.108Z,2.00
2023-01-07T10:43:30.625Z,2.30
2023-01-07T10:46:18.969Z,2.13
2023-01-07T10:49:11.770Z,1.80
2023-01-07T10:52:23.923Z,1.90
2023-01-07T10:55:25.374Z,1.67
2023-01-07T10:57:51.966Z,1.77
2023-01-07T11:00:19.385Z,1.80
2023-01-07T11:02:51.104Z,1.70
2023-01-07T11:05:18.024Z,1.90
2023-01-07T11:07:48.466Z,1.80
2023-01-07T11:10:22.154Z,1.80
2023-01-07T11:12:56.715Z,1.60
2023-01-07T11:15:37.281Z,1.63
2023-01-07T11:18:26.053Z,1.65
2023-01-07T11:20:57.335Z,1.60
2023-01-07T11:23:29.943Z,1.60
2023-01-07T11:26:08.065Z,1.37
2023-01-07T11:28:34.794Z,1.50
2023-01-07T11:31:01.980Z,1.65
2023-01-07T11:34:01.268Z,1.30
2023-01-07T11:36:42.836Z,1.50
2023-01-07T11:39:11.948Z,1.30
2023-01-07T11:41:51.368Z,1.50
2023-01-07T11:44:17.968Z,1.50
2023-01-07T11:46:45.127Z,1.42
2023-01-07T11:49:27.610Z,1.52
2023-01-07T11:51:54.842Z,1.50
2023-01-07T11:54:27.625Z,1.65
2023-01-07T11:57:20.637Z,1.63
2023-01-07T11:59:47.180Z,1.40
2023-01-07T12:02:25.847Z,1.50
2023-01-07T12:04:52.673Z,1.47
2023-01-07T12:07:19.187Z,1.40
2023-01-07T12:09:46.157Z,1.90
2023-01-07T12:12:25.040Z,1.80
2023-01-07T12:14:51.527Z,1.83
2023-01-07T12:17:22.565Z,1.93
2023-01-07T12:20:27.640Z,1.60
2023-01-07T12:23:16.442Z,1.90
2023-01-07T12:25:58.105Z,1.90
2023-01-07T12:28:41.731Z,1.80
2023-01-07T12:31:20.376Z,1.67
2023-01-07T12:34:23.545Z,1.67
2023-01-07T12:36:57.655Z,1.75
2023-01-07T12:39:36.156Z,1.67
2023-01-07T12:42:06.385Z,1.90
2023-01-07T12:44:39.971Z,1.83
2023-01-07T12:47:49.019Z,1.70
2023-01-07T12:50:29.365Z,1.88
2023-01-07T12:53:04.537Z,1.80
2023-01-07T12:55:36.226Z,1.90
2023-01-07T12:58:17.647Z,1.80
2023-01-07T13:01:09.984Z,1.80
2023-01-07T13:04:06.973Z,1.90
2023-01-07T13:06:33.401Z,1.85
2023-01-07T13:09:13.960Z,1.80
2023-01-07T13:11:45.036Z,1.80
2023-01-07T13:14:25.835Z,2.00
2023-01-07T13:16:52.285Z,1.85
2023-01-07T13:19:18.793Z,2.00
2023-01-07T13:21:48.514Z,1.90
2023-01-07T13:24:56.097Z,1.73
2023-01-07T13:27:30.064Z,1.95
2023-01-07T13:29:56.452Z,2.10
2023-01-07T13:32:51.422Z,1.90
2023-01-07T13:35:36.703Z,2.20
2023-01-07T13:38:54.288Z,2.10
2023-01-07T13:41:52.862Z,2.30
2023-01-07T13:44:47.040Z,2.20
2023-01-07T13:47:18.861Z,1.90
2023-01-07T13:49:56.490Z,2.30
2023-01-07T13:52:27.060Z,1.90
2023-01-07T13:54:54.923Z,2.10
2023-01-07T13:57:24.124Z,2.20
2023-01-07T13:59:55.590Z,2.15
2023-01-07T14:02:24.215Z,2.05
2023-01-07T14:05:05.402Z,2.10
2023-01-07T14:07:42.106Z,1.90
2023-01-07T14:10:18.744Z,2.42
2023-01-07T14:13:25.147Z,2.38
2023-01-07T14:16:11.367Z,2.10
2023-01-07T14:18:37.859Z,2.00
2023-01-07T14:21:19.532Z,2.20
2023-01-07T14:23:57.780Z,2.13
2023-01-07T14:26:42.318Z,2.10
2023-01-07T14:29:40.332Z,2.10
2023-01-07T14:32:12.947Z,2.30
2023-01-07T14:34:39.777Z,2.00
2023-01-07T14:37:16.319Z,2.00
2023-01-07T14:39:45.207Z,2.10
2023-01-07T14:42:20.907Z,2.00
2023-01-07T14:44:49.370Z,2.20
2023-01-07T14:47:40.891Z,2.30
2023-01-07T14:50:27.925Z,2.30
2023-01-07T14:53:20.029Z,2.22
2023-01-07T14:56:02.094Z,2.30
2023-01-07T14:58:47.248Z,2.70
2023-01-07T15:01:28.783Z,2.28
2023-01-07T15:04:04.466Z,2.28
2023-01-07T15:06:35.146Z,2.65
2023-01-07T15:09:17.917Z,2.90
2023-01-07T15:11:46.382Z,2.57
2023-01-07T15:14:56.184Z,2.40
2023-01-07T15:17:23.327Z,2.65
2023-01-07T15:19:52.307Z,2.45
2023-01-07T15:22:34.303Z,3.00
2023-01-07T15:25:06.923Z,2.60
2023-01-07T15:27:36.534Z,3.10
2023-01-07T15:30:18.193Z,3.05
2023-01-07T15:33:09.337Z,2.70
2023-01-07T15:35:44.355Z,2.90
2023-01-07T15:38:23.031Z,2.70
2023-01-07T15:40:49.538Z,2.55
2023-01-07T15:43:22.803Z,3.00
2023-01-07T15:46:01.768Z,2.70
2023-01-07T15:48:28.342Z,2.78
2023-01-07T15:50:55.380Z,2.60
2023-01-07T15:53:25.081Z,2.92
2023-01-07T15:56:08.377Z,3.08
2023-01-07T15:58:39.461Z,2.92
2023-01-07T16:01:08.181Z,3.20
2023-01-07T16:03:38.889Z,3.10
2023-01-07T16:06:31.656Z,3.88
2023-01-07T16:08:58.835Z,3.60
2023-01-07T16:11:28.829Z,3.67
2023-01-07T16:14:01.176Z,3.40
2023-01-07T16:16:29.810Z,3.50
2023-01-07T16:19:00.964Z,2.85
2023-01-07T16:21:31.392Z,3.35
2023-01-07T16:23:58.025Z,3.00
2023-01-07T16:26:37.611Z,3.20
2023-01-07T16:29:16.288Z,3.00
2023-01-07T16:31:42.952Z,2.83
2023-01-07T16:34:24.548Z,3.10
2023-01-07T16:36:56.460Z,2.90
2023-01-07T16:39:30.050Z,3.20
2023-01-07T16:41:57.591Z,3.10
2023-01-07T16:44:42.278Z,3.05
2023-01-07T16:47:17.417Z,3.40
2023-01-07T16:49:45.106Z,3.13
2023-01-07T16:52:13.718Z,3.03
2023-01-07T16:54:41.646Z,3.00
2023-01-07T16:57:11.244Z,3.20
2023-01-07T16:59:54.003Z,3.03
2023-01-07T17:02:38.943Z,3.00
2023-01-07T17:05:25.814Z,3.03
2023-01-07T17:08:00.692Z,2.80
2023-01-07T17:10:30.338Z,3.08
2023-01-07T17:12:58.711Z,3.20
2023-01-07T17:15:25.305Z,3.53
2023-01-07T17:17:51.798Z,3.58
2023-01-07T17:20:19.940Z,3.70
2023-01-07T17:22:46.781Z,3.53
2023-01-07T17:25:14.915Z,3.72
2023-01-07T17:27:58.399Z,3.70
2023-01-07T17:30:33.196Z,4.10
2023-01-07T17:33:00.058Z,3.77
2023-01-07T17:35:26.898Z,4.00
2023-01-07T17:37:55.600Z,4.22
2023-01-07T17:40:22.193Z,4.18
2023-01-07T17:42:50.633Z,4.32
2023-01-07T17:45:19.886Z,4.97
2023-01-07T17:47:47.193Z,4.50
2023-01-07T17:50:15.380Z,5.07
2023-01-07T17:52:44.335Z,4.60
2023-01-07T17:55:16.278Z,4.40
2023-01-07T17:57:42.937Z,4.70
2023-01-07T18:00:18.256Z,4.47
2023-01-07T18:02:45.525Z,4.90
2023-01-07T18:05:15.231Z,4.47
2023-01-07T18:07:41.841Z,4.63
2023-01-07T18:10:11.431Z,5.13
2023-01-07T18:12:38.068Z,5.53
2023-01-07T18:15:04.971Z,4.40
2023-01-07T18:17:31.469Z,4.40
2023-01-07T18:19:57.970Z,4.30
2023-01-07T18:22:24.473Z,4.13
2023-01-07T18:24:51.091Z,4.05
2023-01-07T18:27:18.771Z,4.05
2023-01-07T18:29:45.240Z,4.00
2023-01-07T18:32:11.792Z,4.10
2023-01-07T18:34:38.321Z,3.80
2023-01-07T18:37:04.914Z,4.60
2023-01-07T18:39:31.410Z,4.45
2023-01-07T18:41:57.951Z,4.25
2023-01-07T18:44:25.103Z,4.30
2023-01-07T18:46:51.771Z,4.60
2023-01-07T18:49:18.373Z,5.18
2023-01-07T18:51:48.262Z,4.78
2023-01-07T18:54:15.520Z,4.00
2023-01-07T18:56:42.099Z,4.28
2023-01-07T18:59:08.603Z,4.60
2023-01-07T19:01:35.257Z,4.40
2023-01-07T19:04:01.918Z,4.78
2023-01-07T19:06:28.510Z,4.15
2023-01-07T19:08:54.991Z,4.38
2023-01-07T19:11:21.549Z,4.67
2023-01-07T19:13:48.023Z,4.32
2023-01-07T19:16:14.613Z,4.78
2023-01-07T19:18:41.224Z,4.65
2023-01-07T19:21:10.287Z,4.05
2023-01-07T19:23:36.820Z,4.00
2023-01-07T19:26:06.346Z,4.10
2023-01-07T19:28:32.987Z,3.95
2023-01-07T19:30:59.637Z,4.00
2023-01-07T19:33:26.146Z,4.13
2023-01-07T19:36:04.944Z,4.07
2023-01-07T19:38:31.425Z,3.72
2023-01-07T19:40:58.008Z,3.97
2023-01-07T19:43:24.611Z,4.05
2023-01-07T19:45:56.092Z,3.97
2023-01-07T19:48:23.309Z,4.30
2023-01-07T19:50:54.258Z,4.20
2023-01-07T19:53:20.898Z,4.40
2023-01-07T19:55:47.569Z,3.80
2023-01-07T19:58:14.033Z,3.85
2023-01-07T20:00:40.596Z,3.83
2023-01-07T20:03:07.161Z,4.20
2023-01-07T20:05:33.813Z,4.82
2023-01-07T20:08:00.285Z,4.03
2023-01-07T20:10:27.006Z,4.13
2023-01-07T20:12:53.635Z,4.20
2023-01-07T20:15:20.090Z,4.28
2023-01-07T20:17:46.694Z,3.80
2023-01-07T20:20:13.236Z,3.70
2023-01-07T20:22:39.808Z,4.10
2023-01-07T20:25:07.710Z,4.17
2023-01-07T20:27:35.102Z,4.38
2023-01-07T20:30:01.823Z,4.32
2023-01-07T20:32:28.453Z,3.75
2023-01-07T20:34:55.011Z,4.20
2023-01-07T20:37:21.632Z,4.20
2023-01-07T20:39:48.062Z,3.90
2023-01-07T20:42:14.702Z,4.35
2023-01-07T20:44:41.190Z,4.13
2023-01-07T20:47:07.695Z,4.20
2023-01-07T20:49:34.311Z,4.60
2023-01-07T20:52:00.881Z,4.07
2023-01-07T20:54:27.487Z,4.63
2023-01-07T20:56:54.178Z,4.47
2023-01-07T20:59:20.700Z,4.32
2023-01-07T21:01:47.383Z,4.27
2023-01-07T21:04:13.931Z,4.10
2023-01-07T21:06:40.471Z,4.70
2023-01-07T21:09:07.209Z,4.22
2023-01-07T21:11:33.700Z,4.70
2023-01-07T21:14:00.276Z,3.93
2023-01-07T21:16:26.779Z,3.80
2023-01-07T21:18:53.294Z,4.07
2023-01-07T21:21:21.559Z,4.00
2023-01-07T21:23:48.527Z,4.32
2023-01-07T21:26:15.618Z,4.80
2023-01-07T21:28:42.605Z,4.32
2023-01-07T21:31:11.988Z,4.40
2023-01-07T21:33:40.168Z,4.55
2023-01-07T21:36:14.445Z,4.15
2023-01-07T21:38:41.407Z,4.37
2023-01-07T21:41:09.898Z,4.25
2023-01-07T21:43:37.144Z,4.70
2023-01-07T21:46:05.410Z,4.57
2023-01-07T21:48:33.503Z,5.32
2023-01-07T21:51:04.648Z,4.57
2023-01-07T21:53:33.204Z,4.18
2023-01-07T21:56:08.872Z,4.20
2023-01-07T21:58:36.452Z,4.60
2023-01-07T22:01:04.952Z,4.90
2023-01-07T22:03:32.444Z,5.00
2023-01-07T22:06:01.085Z,4.82
2023-01-07T22:08:28.061Z,5.20
2023-01-07T22:10:54.560Z,5.30
2023-01-07T22:13:21.122Z,4.90
2023-01-07T22:15:47.842Z,4.93
2023-01-07T22:18:14.358Z,5.15
2023-01-07T22:20:40.983Z,4.78
2023-01-07T22:23:07.844Z,5.50
2023-01-07T22:25:34.600Z,5.13
2023-01-07T22:28:04.063Z,5.00
2023-01-07T22:30:32.879Z,5.10
2023-01-07T22:32:59.410Z,4.80
2023-01-07T22:35:28.578Z,4.43
2023-01-07T22:37:55.661Z,4.75
2023-01-07T22:40:22.445Z,4.60
2023-01-07T22:42:56.570Z,4.85
2023-01-07T22:45:36.244Z,4.80
2023-01-07T22:48:02.942Z,4.40
2023-01-07T22:50:29.580Z,4.90
2023-01-07T22:52:56.118Z,4.60
2023-01-07T22:55:22.976Z,4.35
2023-01-07T22:57:49.498Z,4.53
2023-01-07T23:00:46.366Z,4.78
2023-01-07T23:03:13.047Z,4.30
2023-01-07T23:05:39.637Z,4.10
2023-01-07T23:08:06.679Z,4.00
2023-01-07T23:10:33.211Z,4.50
2023-01-07T23:12:59.709Z,4.07
2023-01-07T23:15:26.254Z,4.50
2023-01-07T23:17:52.776Z,4.07
2023-01-07T23:20:19.258Z,3.90
2023-01-07T23:22:45.796Z,4.07
2023-01-07T23:25:12.567Z,4.07
2023-01-07T23:27:39.562Z,4.25
2023-01-07T23:30:06.945Z,4.10
2023-01-07T23:32:33.595Z,3.60
2023-01-07T23:35:00.159Z,4.05
2023-01-07T23:37:26.684Z,4.05
2023-01-07T23:39:53.225Z,4.40
2023-01-07T23:42:19.733Z,4.03
2023-01-07T23:44:46.176Z,4.18
2023-01-07T23:47:12.892Z,3.78
2023-01-07T23:49:39.393Z,3.38
2023-01-07T23:52:05.965Z,2.13
2023-01-07T23:54:32.469Z,2.33
2023-01-07T23:56:59.051Z,1.70
2023-01-07T23:59:25.685Z,1.70
